sensor_id;sensor_type;location;lat;lon;timestamp;P1;durP1;ratioP1;P2;durP2;ratioP2
4738;SDS011;2383;48.632;10.156;2023-02-28T00:03:16;4.23;;;2.70;;
4738;SDS011;2383;48.632;10.156;2023-02-28T00:07:18;6.50;;;3.07;;
4738;SDS011;2383;48.632;10.156;2023-02-28T00:11:20;4.83;;;3.37;;
4738;SDS011;2383;48.632;10.156;2023-02-28T00:15:23;4.43;;;2.90;;
4738;SDS011;2383;48.632;10.156;2023-02-28T00:19:25;4.03;;;3.13;;
4738;SDS011;2383;48.632;10.156;2023-02-28T00:23:27;5.97;;;3.13;;
4738;SDS011;2383;48.632;10.156;2023-02-28T00:27:29;4.27;;;3.30;;
4738;SDS011;2383;48.632;10.156;2023-02-28T00:31:31;4.67;;;3.03;;
4738;SDS011;2383;48.632;10.156;2023-02-28T00:35:34;5.70;;;2.93;;
4738;SDS011;2383;48.632;10.156;2023-02-28T00:39:38;4.10;;;2.90;;
4738;SDS011;2383;48.632;10.156;2023-02-28T00:43:41;4.53;;;3.23;;
4738;SDS011;2383;48.632;10.156;2023-02-28T00:47:44;3.87;;;3.07;;
4738;SDS011;2383;48.632;10.156;2023-02-28T00:51:48;4.23;;;3.00;;
4738;SDS011;2383;48.632;10.156;2023-02-28T00:55:50;6.30;;;3.33;;
4738;SDS011;2383;48.632;10.156;2023-02-28T00:59:52;6.77;;;3.10;;
4738;SDS011;2383;48.632;10.156;2023-02-28T01:03:55;6.43;;;3.37;;
4738;SDS011;2383;48.632;10.156;2023-02-28T01:07:57;6.03;;;3.67;;
4738;SDS011;2383;48.632;10.156;2023-02-28T01:11:59;3.53;;;2.83;;
4738;SDS011;2383;48.632;10.156;2023-02-28T01:16:01;3.87;;;2.90;;
4738;SDS011;2383;48.632;10.156;2023-02-28T01:20:03;3.40;;;2.80;;
4738;SDS011;2383;48.632;10.156;2023-02-28T01:24:05;4.90;;;3.00;;
4738;SDS011;2383;48.632;10.156;2023-02-28T01:28:09;4.33;;;3.40;;
4738;SDS011;2383;48.632;10.156;2023-02-28T01:32:11;4.80;;;3.30;;
4738;SDS011;2383;48.632;10.156;2023-02-28T01:36:14;4.10;;;3.17;;
4738;SDS011;2383;48.632;10.156;2023-02-28T01:40:18;4.60;;;3.10;;
4738;SDS011;2383;48.632;10.156;2023-02-28T01:53:06;4.50;;;3.50;;
4738;SDS011;2383;48.632;10.156;2023-02-28T01:57:13;5.40;;;3.87;;
4738;SDS011;2383;48.632;10.156;2023-02-28T02:01:18;4.47;;;3.13;;
4738;SDS011;2383;48.632;10.156;2023-02-28T02:05:25;6.53;;;4.00;;
4738;SDS011;2383;48.632;10.156;2023-02-28T02:09:32;6.70;;;3.47;;
4738;SDS011;2383;48.632;10.156;2023-02-28T02:17:43;5.27;;;4.00;;
4738;SDS011;2383;48.632;10.156;2023-02-28T02:26:30;5.60;;;3.67;;
4738;SDS011;2383;48.632;10.156;2023-02-28T02:39:17;5.43;;;3.77;;
4738;SDS011;2383;48.632;10.156;2023-02-28T02:47:53;4.77;;;3.40;;
4738;SDS011;2383;48.632;10.156;2023-02-28T02:51:57;4.97;;;3.60;;
4738;SDS011;2383;48.632;10.156;2023-02-28T02:56:04;5.50;;;3.77;;
4738;SDS011;2383;48.632;10.156;2023-02-28T03:00:08;6.90;;;4.00;;
4738;SDS011;2383;48.632;10.156;2023-02-28T03:04:13;6.07;;;4.00;;
4738;SDS011;2383;48.632;10.156;2023-02-28T03:08:18;5.10;;;3.73;;
4738;SDS011;2383;48.632;10.156;2023-02-28T03:12:19;6.03;;;4.37;;
4738;SDS011;2383;48.632;10.156;2023-02-28T03:29:28;5.87;;;3.97;;
4738;SDS011;2383;48.632;10.156;2023-02-28T03:33:38;9.83;;;4.73;;
4738;SDS011;2383;48.632;10.156;2023-02-28T03:37:43;7.27;;;4.60;;
4738;SDS011;2383;48.632;10.156;2023-02-28T03:45:52;5.13;;;4.47;;
4738;SDS011;2383;48.632;10.156;2023-02-28T03:50:01;8.23;;;5.03;;
4738;SDS011;2383;48.632;10.156;2023-02-28T03:54:11;6.97;;;4.80;;
4738;SDS011;2383;48.632;10.156;2023-02-28T03:58:30;7.37;;;4.70;;
4738;SDS011;2383;48.632;10.156;2023-02-28T04:02:40;6.00;;;4.70;;
4738;SDS011;2383;48.632;10.156;2023-02-28T04:06:42;7.20;;;5.50;;
4738;SDS011;2383;48.632;10.156;2023-02-28T04:10:45;7.87;;;5.20;;
4738;SDS011;2383;48.632;10.156;2023-02-28T04:14:54;8.17;;;4.93;;
4738;SDS011;2383;48.632;10.156;2023-02-28T04:18:56;9.83;;;4.90;;
4738;SDS011;2383;48.632;10.156;2023-02-28T04:23:03;7.43;;;5.30;;
4738;SDS011;2383;48.632;10.156;2023-02-28T04:27:05;7.97;;;5.30;;
4738;SDS011;2383;48.632;10.156;2023-02-28T04:31:06;7.00;;;5.30;;
4738;SDS011;2383;48.632;10.156;2023-02-28T04:35:08;7.10;;;4.97;;
4738;SDS011;2383;48.632;10.156;2023-02-28T04:39:12;8.90;;;5.70;;
4738;SDS011;2383;48.632;10.156;2023-02-28T04:43:15;7.33;;;5.10;;
4738;SDS011;2383;48.632;10.156;2023-02-28T04:47:16;9.40;;;5.07;;
4738;SDS011;2383;48.632;10.156;2023-02-28T04:51:18;7.13;;;5.30;;
4738;SDS011;2383;48.632;10.156;2023-02-28T04:55:21;8.53;;;5.10;;
4738;SDS011;2383;48.632;10.156;2023-02-28T04:59:22;6.83;;;5.10;;
4738;SDS011;2383;48.632;10.156;2023-02-28T05:03:24;7.67;;;5.67;;
4738;SDS011;2383;48.632;10.156;2023-02-28T05:07:28;7.87;;;5.87;;
4738;SDS011;2383;48.632;10.156;2023-02-28T05:11:31;8.77;;;5.40;;
4738;SDS011;2383;48.632;10.156;2023-02-28T05:15:37;8.13;;;6.03;;
4738;SDS011;2383;48.632;10.156;2023-02-28T05:19:39;10.23;;;6.07;;
4738;SDS011;2383;48.632;10.156;2023-02-28T05:23:40;7.97;;;5.53;;
4738;SDS011;2383;48.632;10.156;2023-02-28T05:27:42;7.57;;;5.77;;
4738;SDS011;2383;48.632;10.156;2023-02-28T05:31:45;9.33;;;5.53;;
4738;SDS011;2383;48.632;10.156;2023-02-28T05:35:47;9.90;;;5.77;;
4738;SDS011;2383;48.632;10.156;2023-02-28T05:39:49;6.67;;;5.17;;
4738;SDS011;2383;48.632;10.156;2023-02-28T05:43:51;10.07;;;6.00;;
4738;SDS011;2383;48.632;10.156;2023-02-28T05:47:53;7.23;;;5.77;;
4738;SDS011;2383;48.632;10.156;2023-02-28T05:51:56;9.33;;;6.43;;
4738;SDS011;2383;48.632;10.156;2023-02-28T05:55:58;7.97;;;5.63;;
4738;SDS011;2383;48.632;10.156;2023-02-28T06:00:00;11.20;;;7.33;;
4738;SDS011;2383;48.632;10.156;2023-02-28T06:04:12;9.93;;;5.93;;
4738;SDS011;2383;48.632;10.156;2023-02-28T06:08:31;9.57;;;6.43;;
4738;SDS011;2383;48.632;10.156;2023-02-28T06:12:33;8.00;;;6.10;;
4738;SDS011;2383;48.632;10.156;2023-02-28T06:16:35;9.30;;;6.43;;
4738;SDS011;2383;48.632;10.156;2023-02-28T06:20:37;9.33;;;6.23;;
4738;SDS011;2383;48.632;10.156;2023-02-28T06:24:39;8.53;;;6.17;;
4738;SDS011;2383;48.632;10.156;2023-02-28T06:28:41;8.70;;;6.47;;
4738;SDS011;2383;48.632;10.156;2023-02-28T06:32:43;13.07;;;6.63;;
4738;SDS011;2383;48.632;10.156;2023-02-28T06:36:44;10.67;;;7.07;;
4738;SDS011;2383;48.632;10.156;2023-02-28T06:40:52;9.33;;;6.67;;
4738;SDS011;2383;48.632;10.156;2023-02-28T06:44:55;11.33;;;7.13;;
4738;SDS011;2383;48.632;10.156;2023-02-28T06:48:57;12.10;;;7.47;;
4738;SDS011;2383;48.632;10.156;2023-02-28T06:52:59;11.33;;;7.30;;
4738;SDS011;2383;48.632;10.156;2023-02-28T06:57:01;16.40;;;13.27;;
4738;SDS011;2383;48.632;10.156;2023-02-28T07:01:03;11.70;;;8.00;;
4738;SDS011;2383;48.632;10.156;2023-02-28T07:05:05;8.70;;;6.87;;
4738;SDS011;2383;48.632;10.156;2023-02-28T07:09:07;12.13;;;6.87;;
4738;SDS011;2383;48.632;10.156;2023-02-28T07:13:09;10.50;;;6.53;;
4738;SDS011;2383;48.632;10.156;2023-02-28T07:17:11;11.70;;;6.80;;
4738;SDS011;2383;48.632;10.156;2023-02-28T07:21:13;10.10;;;6.73;;
4738;SDS011;2383;48.632;10.156;2023-02-28T07:25:16;10.07;;;6.83;;
4738;SDS011;2383;48.632;10.156;2023-02-28T07:29:17;12.23;;;7.50;;
4738;SDS011;2383;48.632;10.156;2023-02-28T07:33:19;10.80;;;7.13;;
4738;SDS011;2383;48.632;10.156;2023-02-28T07:37:21;10.53;;;6.43;;
4738;SDS011;2383;48.632;10.156;2023-02-28T07:41:23;9.53;;;6.87;;
4738;SDS011;2383;48.632;10.156;2023-02-28T07:45:29;11.77;;;7.07;;
4738;SDS011;2383;48.632;10.156;2023-02-28T07:49:33;9.47;;;6.63;;
4738;SDS011;2383;48.632;10.156;2023-02-28T07:53:35;10.40;;;7.30;;
4738;SDS011;2383;48.632;10.156;2023-02-28T07:57:37;10.83;;;7.00;;
4738;SDS011;2383;48.632;10.156;2023-02-28T08:01:39;9.53;;;6.93;;
4738;SDS011;2383;48.632;10.156;2023-02-28T08:05:41;10.57;;;7.20;;
4738;SDS011;2383;48.632;10.156;2023-02-28T08:09:43;11.67;;;7.40;;
4738;SDS011;2383;48.632;10.156;2023-02-28T08:13:45;11.13;;;7.57;;
4738;SDS011;2383;48.632;10.156;2023-02-28T08:17:47;10.77;;;7.17;;
4738;SDS011;2383;48.632;10.156;2023-02-28T08:21:49;11.77;;;7.70;;
4738;SDS011;2383;48.632;10.156;2023-02-28T08:25:55;11.63;;;7.37;;
4738;SDS011;2383;48.632;10.156;2023-02-28T08:29:57;14.03;;;7.93;;
4738;SDS011;2383;48.632;10.156;2023-02-28T08:33:59;9.80;;;7.30;;
4738;SDS011;2383;48.632;10.156;2023-02-28T08:38:01;12.20;;;8.10;;
4738;SDS011;2383;48.632;10.156;2023-02-28T08:42:03;12.47;;;7.93;;
4738;SDS011;2383;48.632;10.156;2023-02-28T08:46:08;10.47;;;7.50;;
4738;SDS011;2383;48.632;10.156;2023-02-28T08:50:14;10.97;;;7.97;;
4738;SDS011;2383;48.632;10.156;2023-02-28T08:54:16;12.37;;;7.93;;
4738;SDS011;2383;48.632;10.156;2023-02-28T08:58:20;14.03;;;8.47;;
4738;SDS011;2383;48.632;10.156;2023-02-28T09:02:22;12.07;;;8.27;;
4738;SDS011;2383;48.632;10.156;2023-02-28T09:06:24;13.17;;;8.87;;
4738;SDS011;2383;48.632;10.156;2023-02-28T09:10:27;13.23;;;7.80;;
4738;SDS011;2383;48.632;10.156;2023-02-28T09:14:29;13.30;;;8.33;;
4738;SDS011;2383;48.632;10.156;2023-02-28T09:18:33;11.47;;;8.60;;
4738;SDS011;2383;48.632;10.156;2023-02-28T09:22:38;16.30;;;9.43;;
4738;SDS011;2383;48.632;10.156;2023-02-28T09:26:40;12.43;;;8.90;;
4738;SDS011;2383;48.632;10.156;2023-02-28T09:30:53;14.90;;;9.40;;
4738;SDS011;2383;48.632;10.156;2023-02-28T09:34:55;12.93;;;8.40;;
4738;SDS011;2383;48.632;10.156;2023-02-28T09:38:57;14.47;;;8.70;;
4738;SDS011;2383;48.632;10.156;2023-02-28T09:42:59;11.63;;;8.50;;
4738;SDS011;2383;48.632;10.156;2023-02-28T09:47:12;11.17;;;7.90;;
4738;SDS011;2383;48.632;10.156;2023-02-28T09:55:42;12.80;;;8.23;;
4738;SDS011;2383;48.632;10.156;2023-02-28T10:04:17;14.90;;;9.60;;
4738;SDS011;2383;48.632;10.156;2023-02-28T10:08:45;15.90;;;8.63;;
4738;SDS011;2383;48.632;10.156;2023-02-28T10:13:33;12.53;;;9.60;;
4738;SDS011;2383;48.632;10.156;2023-02-28T10:17:38;14.70;;;9.07;;
4738;SDS011;2383;48.632;10.156;2023-02-28T10:22:02;14.50;;;9.40;;
4738;SDS011;2383;48.632;10.156;2023-02-28T10:26:08;13.53;;;9.27;;
4738;SDS011;2383;48.632;10.156;2023-02-28T10:30:14;14.83;;;10.13;;
4738;SDS011;2383;48.632;10.156;2023-02-28T10:34:15;12.10;;;8.60;;
4738;SDS011;2383;48.632;10.156;2023-02-28T10:38:33;12.47;;;8.67;;
4738;SDS011;2383;48.632;10.156;2023-02-28T10:42:37;13.50;;;9.00;;
4738;SDS011;2383;48.632;10.156;2023-02-28T10:46:40;13.93;;;8.90;;
4738;SDS011;2383;48.632;10.156;2023-02-28T10:54:51;14.97;;;9.03;;
4738;SDS011;2383;48.632;10.156;2023-02-28T10:59:26;13.47;;;9.50;;
4738;SDS011;2383;48.632;10.156;2023-02-28T11:03:34;12.47;;;9.43;;
4738;SDS011;2383;48.632;10.156;2023-02-28T11:07:36;12.93;;;9.00;;
4738;SDS011;2383;48.632;10.156;2023-02-28T11:11:53;12.47;;;8.40;;
4738;SDS011;2383;48.632;10.156;2023-02-28T11:15:55;13.13;;;9.60;;
4738;SDS011;2383;48.632;10.156;2023-02-28T11:20:04;17.40;;;8.33;;
4738;SDS011;2383;48.632;10.156;2023-02-28T11:32:34;17.20;;;9.57;;
4738;SDS011;2383;48.632;10.156;2023-02-28T11:36:36;14.03;;;8.77;;
4738;SDS011;2383;48.632;10.156;2023-02-28T11:41:29;14.37;;;9.50;;
4738;SDS011;2383;48.632;10.156;2023-02-28T11:45:35;12.83;;;8.80;;
4738;SDS011;2383;48.632;10.156;2023-02-28T11:49:59;13.70;;;9.40;;
4738;SDS011;2383;48.632;10.156;2023-02-28T12:07:11;13.53;;;9.67;;
4738;SDS011;2383;48.632;10.156;2023-02-28T12:28:51;13.07;;;9.10;;
4738;SDS011;2383;48.632;10.156;2023-02-28T12:37:12;12.03;;;8.80;;
4738;SDS011;2383;48.632;10.156;2023-02-28T12:41:20;11.97;;;8.40;;
4738;SDS011;2383;48.632;10.156;2023-02-28T12:50:04;11.00;;;8.50;;
4738;SDS011;2383;48.632;10.156;2023-02-28T12:54:26;10.67;;;8.23;;
4738;SDS011;2383;48.632;10.156;2023-02-28T13:07:25;10.37;;;8.30;;
4738;SDS011;2383;48.632;10.156;2023-02-28T13:11:43;12.90;;;8.77;;
4738;SDS011;2383;48.632;10.156;2023-02-28T13:16:23;12.50;;;8.90;;
4738;SDS011;2383;48.632;10.156;2023-02-28T13:20:26;14.40;;;8.50;;
4738;SDS011;2383;48.632;10.156;2023-02-28T13:24:42;11.40;;;8.00;;
4738;SDS011;2383;48.632;10.156;2023-02-28T13:33:17;13.33;;;8.33;;
4738;SDS011;2383;48.632;10.156;2023-02-28T13:45:32;13.47;;;7.93;;
4738;SDS011;2383;48.632;10.156;2023-02-28T13:49:39;11.30;;;7.67;;
4738;SDS011;2383;48.632;10.156;2023-02-28T13:53:47;11.77;;;8.53;;
4738;SDS011;2383;48.632;10.156;2023-02-28T13:58:12;11.07;;;7.40;;
4738;SDS011;2383;48.632;10.156;2023-02-28T14:02:45;11.37;;;7.90;;
4738;SDS011;2383;48.632;10.156;2023-02-28T14:07:07;17.17;;;9.73;;
4738;SDS011;2383;48.632;10.156;2023-02-28T14:11:22;11.57;;;8.50;;
4738;SDS011;2383;48.632;10.156;2023-02-28T14:19:45;10.63;;;7.67;;
4738;SDS011;2383;48.632;10.156;2023-02-28T14:28:27;10.47;;;7.47;;
4738;SDS011;2383;48.632;10.156;2023-02-28T14:37:15;9.97;;;8.17;;
4738;SDS011;2383;48.632;10.156;2023-02-28T14:41:35;13.93;;;10.13;;
4738;SDS011;2383;48.632;10.156;2023-02-28T14:45:40;12.87;;;8.50;;
4738;SDS011;2383;48.632;10.156;2023-02-28T14:49:42;15.90;;;10.07;;
4738;SDS011;2383;48.632;10.156;2023-02-28T14:53:56;19.93;;;13.37;;
4738;SDS011;2383;48.632;10.156;2023-02-28T14:58:01;14.23;;;9.10;;
4738;SDS011;2383;48.632;10.156;2023-02-28T15:06:19;12.63;;;9.07;;
4738;SDS011;2383;48.632;10.156;2023-02-28T15:10:23;13.90;;;9.77;;
4738;SDS011;2383;48.632;10.156;2023-02-28T15:14:26;12.17;;;8.53;;
4738;SDS011;2383;48.632;10.156;2023-02-28T15:18:43;16.27;;;10.23;;
4738;SDS011;2383;48.632;10.156;2023-02-28T15:22:50;15.47;;;9.57;;
4738;SDS011;2383;48.632;10.156;2023-02-28T15:26:55;13.37;;;9.17;;
4738;SDS011;2383;48.632;10.156;2023-02-28T15:31:00;10.80;;;8.17;;
4738;SDS011;2383;48.632;10.156;2023-02-28T15:35:18;16.83;;;9.47;;
4738;SDS011;2383;48.632;10.156;2023-02-28T15:39:26;13.90;;;8.77;;
4738;SDS011;2383;48.632;10.156;2023-02-28T15:43:31;16.90;;;9.87;;
4738;SDS011;2383;48.632;10.156;2023-02-28T15:47:34;18.00;;;12.10;;
4738;SDS011;2383;48.632;10.156;2023-02-28T15:51:36;20.60;;;11.33;;
4738;SDS011;2383;48.632;10.156;2023-02-28T15:55:40;14.93;;;9.80;;
4738;SDS011;2383;48.632;10.156;2023-02-28T15:59:48;15.07;;;10.27;;
4738;SDS011;2383;48.632;10.156;2023-02-28T16:03:57;13.67;;;9.73;;
4738;SDS011;2383;48.632;10.156;2023-02-28T16:08:11;14.17;;;9.13;;
4738;SDS011;2383;48.632;10.156;2023-02-28T16:12:18;14.37;;;9.40;;
4738;SDS011;2383;48.632;10.156;2023-02-28T16:16:23;14.63;;;8.77;;
4738;SDS011;2383;48.632;10.156;2023-02-28T16:20:28;19.13;;;9.57;;
4738;SDS011;2383;48.632;10.156;2023-02-28T16:24:31;19.80;;;9.93;;
4738;SDS011;2383;48.632;10.156;2023-02-28T16:28:34;13.87;;;8.93;;
4738;SDS011;2383;48.632;10.156;2023-02-28T16:32:37;16.43;;;9.00;;
4738;SDS011;2383;48.632;10.156;2023-02-28T16:36:39;12.30;;;8.80;;
4738;SDS011;2383;48.632;10.156;2023-02-28T16:40:42;14.67;;;9.47;;
4738;SDS011;2383;48.632;10.156;2023-02-28T16:44:44;14.47;;;9.50;;
4738;SDS011;2383;48.632;10.156;2023-02-28T16:48:47;12.20;;;8.87;;
4738;SDS011;2383;48.632;10.156;2023-02-28T16:52:53;19.57;;;10.47;;
4738;SDS011;2383;48.632;10.156;2023-02-28T16:56:55;16.17;;;9.27;;
4738;SDS011;2383;48.632;10.156;2023-02-28T17:00:57;21.67;;;12.13;;
4738;SDS011;2383;48.632;10.156;2023-02-28T17:04:59;24.43;;;15.20;;
4738;SDS011;2383;48.632;10.156;2023-02-28T17:09:01;13.53;;;9.57;;
4738;SDS011;2383;48.632;10.156;2023-02-28T17:13:03;18.60;;;10.80;;
4738;SDS011;2383;48.632;10.156;2023-02-28T17:17:17;18.67;;;9.30;;
4738;SDS011;2383;48.632;10.156;2023-02-28T17:21:22;13.00;;;8.77;;
4738;SDS011;2383;48.632;10.156;2023-02-28T17:25:24;12.50;;;8.50;;
4738;SDS011;2383;48.632;10.156;2023-02-28T17:29:26;13.97;;;8.70;;
4738;SDS011;2383;48.632;10.156;2023-02-28T17:33:28;16.33;;;10.03;;
4738;SDS011;2383;48.632;10.156;2023-02-28T17:37:30;17.50;;;11.20;;
4738;SDS011;2383;48.632;10.156;2023-02-28T17:41:32;17.30;;;10.87;;
4738;SDS011;2383;48.632;10.156;2023-02-28T17:45:34;18.93;;;12.23;;
4738;SDS011;2383;48.632;10.156;2023-02-28T17:49:37;18.30;;;12.57;;
4738;SDS011;2383;48.632;10.156;2023-02-28T17:53:39;20.50;;;12.97;;
4738;SDS011;2383;48.632;10.156;2023-02-28T17:57:41;17.67;;;11.47;;
4738;SDS011;2383;48.632;10.156;2023-02-28T18:01:43;57.20;;;29.43;;
4738;SDS011;2383;48.632;10.156;2023-02-28T18:05:45;52.43;;;26.70;;
4738;SDS011;2383;48.632;10.156;2023-02-28T18:09:47;47.30;;;23.23;;
4738;SDS011;2383;48.632;10.156;2023-02-28T18:13:50;21.43;;;13.30;;
4738;SDS011;2383;48.632;10.156;2023-02-28T18:17:53;20.87;;;13.63;;
4738;SDS011;2383;48.632;10.156;2023-02-28T18:21:55;18.33;;;12.63;;
4738;SDS011;2383;48.632;10.156;2023-02-28T18:25:57;20.50;;;13.67;;
4738;SDS011;2383;48.632;10.156;2023-02-28T18:29:59;21.40;;;13.73;;
4738;SDS011;2383;48.632;10.156;2023-02-28T18:34:01;33.43;;;19.63;;
4738;SDS011;2383;48.632;10.156;2023-02-28T18:38:07;25.93;;;16.47;;
4738;SDS011;2383;48.632;10.156;2023-02-28T18:42:17;24.73;;;15.37;;
4738;SDS011;2383;48.632;10.156;2023-02-28T18:46:19;20.27;;;13.13;;
4738;SDS011;2383;48.632;10.156;2023-02-28T18:50:21;21.53;;;14.07;;
4738;SDS011;2383;48.632;10.156;2023-02-28T18:54:23;19.97;;;12.00;;
4738;SDS011;2383;48.632;10.156;2023-02-28T18:58:25;17.50;;;12.00;;
4738;SDS011;2383;48.632;10.156;2023-02-28T19:02:27;19.17;;;13.50;;
4738;SDS011;2383;48.632;10.156;2023-02-28T19:06:30;18.70;;;12.60;;
4738;SDS011;2383;48.632;10.156;2023-02-28T19:10:33;24.93;;;14.97;;
4738;SDS011;2383;48.632;10.156;2023-02-28T19:14:38;23.83;;;14.90;;
4738;SDS011;2383;48.632;10.156;2023-02-28T19:18:40;27.47;;;16.60;;
4738;SDS011;2383;48.632;10.156;2023-02-28T19:22:42;22.87;;;13.57;;
4738;SDS011;2383;48.632;10.156;2023-02-28T19:26:44;19.67;;;13.30;;
4738;SDS011;2383;48.632;10.156;2023-02-28T19:30:46;19.53;;;12.33;;
4738;SDS011;2383;48.632;10.156;2023-02-28T19:34:50;19.70;;;12.27;;
4738;SDS011;2383;48.632;10.156;2023-02-28T19:38:52;21.47;;;13.47;;
4738;SDS011;2383;48.632;10.156;2023-02-28T19:42:54;21.13;;;13.33;;
4738;SDS011;2383;48.632;10.156;2023-02-28T19:46:56;23.20;;;14.03;;
4738;SDS011;2383;48.632;10.156;2023-02-28T19:51:07;16.90;;;11.23;;
4738;SDS011;2383;48.632;10.156;2023-02-28T19:55:12;16.23;;;10.70;;
4738;SDS011;2383;48.632;10.156;2023-02-28T19:59:14;23.77;;;16.10;;
4738;SDS011;2383;48.632;10.156;2023-02-28T20:03:26;19.10;;;14.40;;
4738;SDS011;2383;48.632;10.156;2023-02-28T20:07:28;18.37;;;12.00;;
4738;SDS011;2383;48.632;10.156;2023-02-28T20:11:30;19.77;;;11.30;;
4738;SDS011;2383;48.632;10.156;2023-02-28T20:15:32;15.27;;;10.53;;
4738;SDS011;2383;48.632;10.156;2023-02-28T20:19:34;17.20;;;11.77;;
4738;SDS011;2383;48.632;10.156;2023-02-28T20:23:36;16.07;;;10.50;;
4738;SDS011;2383;48.632;10.156;2023-02-28T20:27:39;16.50;;;11.00;;
4738;SDS011;2383;48.632;10.156;2023-02-28T20:31:41;15.77;;;10.10;;
4738;SDS011;2383;48.632;10.156;2023-02-28T20:35:43;19.93;;;10.60;;
4738;SDS011;2383;48.632;10.156;2023-02-28T20:39:45;15.60;;;10.70;;
4738;SDS011;2383;48.632;10.156;2023-02-28T20:43:52;15.93;;;11.10;;
4738;SDS011;2383;48.632;10.156;2023-02-28T20:48:03;16.83;;;10.30;;
4738;SDS011;2383;48.632;10.156;2023-02-28T20:52:05;16.33;;;10.27;;
4738;SDS011;2383;48.632;10.156;2023-02-28T20:56:09;17.57;;;10.53;;
4738;SDS011;2383;48.632;10.156;2023-02-28T21:00:13;31.87;;;15.97;;
4738;SDS011;2383;48.632;10.156;2023-02-28T21:04:21;16.57;;;10.13;;
4738;SDS011;2383;48.632;10.156;2023-02-28T21:08:23;15.70;;;10.83;;
4738;SDS011;2383;48.632;10.156;2023-02-28T21:12:24;21.00;;;12.07;;
4738;SDS011;2383;48.632;10.156;2023-02-28T21:16:26;16.77;;;11.17;;
4738;SDS011;2383;48.632;10.156;2023-02-28T21:20:32;19.33;;;11.17;;
4738;SDS011;2383;48.632;10.156;2023-02-28T21:24:34;17.13;;;11.57;;
4738;SDS011;2383;48.632;10.156;2023-02-28T21:28:36;17.70;;;11.20;;
4738;SDS011;2383;48.632;10.156;2023-02-28T21:32:44;16.27;;;10.43;;
4738;SDS011;2383;48.632;10.156;2023-02-28T21:36:45;20.60;;;12.70;;
4738;SDS011;2383;48.632;10.156;2023-02-28T21:40:48;17.70;;;11.50;;
4738;SDS011;2383;48.632;10.156;2023-02-28T21:44:51;18.13;;;11.83;;
4738;SDS011;2383;48.632;10.156;2023-02-28T21:48:53;16.67;;;11.37;;
4738;SDS011;2383;48.632;10.156;2023-02-28T21:52:56;19.90;;;11.47;;
4738;SDS011;2383;48.632;10.156;2023-02-28T21:56:58;19.53;;;11.43;;
4738;SDS011;2383;48.632;10.156;2023-02-28T22:01:05;21.47;;;12.53;;
4738;SDS011;2383;48.632;10.156;2023-02-28T22:05:09;19.13;;;11.50;;
4738;SDS011;2383;48.632;10.156;2023-02-28T22:09:11;17.60;;;11.50;;
4738;SDS011;2383;48.632;10.156;2023-02-28T22:13:13;18.83;;;12.43;;
4738;SDS011;2383;48.632;10.156;2023-02-28T22:17:15;20.10;;;11.50;;
4738;SDS011;2383;48.632;10.156;2023-02-28T22:21:17;16.70;;;11.20;;
4738;SDS011;2383;48.632;10.156;2023-02-28T22:25:20;17.90;;;11.60;;
4738;SDS011;2383;48.632;10.156;2023-02-28T22:29:22;18.40;;;11.83;;
4738;SDS011;2383;48.632;10.156;2023-02-28T22:33:25;18.80;;;12.03;;
4738;SDS011;2383;48.632;10.156;2023-02-28T22:37:28;19.47;;;11.80;;
4738;SDS011;2383;48.632;10.156;2023-02-28T22:41:29;18.83;;;11.33;;
4738;SDS011;2383;48.632;10.156;2023-02-28T22:45:38;16.67;;;11.90;;
4738;SDS011;2383;48.632;10.156;2023-02-28T22:49:41;18.80;;;12.53;;
4738;SDS011;2383;48.632;10.156;2023-02-28T22:53:44;20.93;;;13.43;;
4738;SDS011;2383;48.632;10.156;2023-02-28T22:57:47;19.43;;;13.27;;
4738;SDS011;2383;48.632;10.156;2023-02-28T23:01:49;198.17;;;61.87;;
4738;SDS011;2383;48.632;10.156;2023-02-28T23:05:51;23.23;;;14.13;;
4738;SDS011;2383;48.632;10.156;2023-02-28T23:09:53;29.47;;;18.33;;
4738;SDS011;2383;48.632;10.156;2023-02-28T23:13:55;29.90;;;19.27;;
4738;SDS011;2383;48.632;10.156;2023-02-28T23:18:00;30.43;;;17.27;;
4738;SDS011;2383;48.632;10.156;2023-02-28T23:22:02;23.40;;;14.63;;
4738;SDS011;2383;48.632;10.156;2023-02-28T23:26:06;24.30;;;13.47;;
4738;SDS011;2383;48.632;10.156;2023-02-28T23:30:09;24.13;;;15.03;;
4738;SDS011;2383;48.632;10.156;2023-02-28T23:34:11;23.90;;;14.67;;
4738;SDS011;2383;48.632;10.156;2023-02-28T23:38:15;28.40;;;16.00;;
4738;SDS011;2383;48.632;10.156;2023-02-28T23:42:17;22.13;;;13.93;;
4738;SDS011;2383;48.632;10.156;2023-02-28T23:46:19;23.80;;;13.23;;
4738;SDS011;2383;48.632;10.156;2023-02-28T23:50:22;35.40;;;19.20;;
4738;SDS011;2383;48.632;10.156;2023-02-28T23:54:23;33.77;;;18.17;;
4738;SDS011;2383;48.632;10.156;2023-02-28T23:58:27;26.07;;;17.30;;
